METAR Data
IDs: Format: Raw Decoded Include TAF

Data at: 0219 UTC 20 Jan 2022

KJLN 200153Z 02014G23KT 10SM CLR M06/M13 A3044 RMK AO2 PK WND 36026/0116 SLP315 T10611128